sensor_id;sensor_type;location;lat;lon;timestamp;temperature;humidity
10384;DHT22;5238;43.508;4.980;2023-02-01T00:01:49;9.20;91.30
10384;DHT22;5238;43.508;4.980;2023-02-01T00:04:22;9.20;91.30
10384;DHT22;5238;43.508;4.980;2023-02-01T00:06:50;9.20;91.30
10384;DHT22;5238;43.508;4.980;2023-02-01T00:09:20;9.20;91.30
10384;DHT22;5238;43.508;4.980;2023-02-01T00:11:48;9.20;91.30
10384;DHT22;5238;43.508;4.980;2023-02-01T00:14:20;9.20;91.30
10384;DHT22;5238;43.508;4.980;2023-02-01T00:16:52;9.20;91.30
10384;DHT22;5238;43.508;4.980;2023-02-01T00:19:19;9.20;91.30
10384;DHT22;5238;43.508;4.980;2023-02-01T00:21:49;9.20;91.30
10384;DHT22;5238;43.508;4.980;2023-02-01T00:24:18;9.20;91.30
10384;DHT22;5238;43.508;4.980;2023-02-01T00:26:51;9.20;91.30
10384;DHT22;5238;43.508;4.980;2023-02-01T00:29:27;9.20;91.30
10384;DHT22;5238;43.508;4.980;2023-02-01T00:31:57;9.20;91.30
10384;DHT22;5238;43.508;4.980;2023-02-01T00:34:27;9.20;91.30
10384;DHT22;5238;43.508;4.980;2023-02-01T00:37:00;9.20;91.30
10384;DHT22;5238;43.508;4.980;2023-02-01T00:39:30;9.20;91.30
10384;DHT22;5238;43.508;4.980;2023-02-01T00:42:00;9.20;91.30
10384;DHT22;5238;43.508;4.980;2023-02-01T00:44:33;9.20;91.30
10384;DHT22;5238;43.508;4.980;2023-02-01T00:47:03;9.20;91.30
10384;DHT22;5238;43.508;4.980;2023-02-01T00:49:30;9.20;91.30
10384;DHT22;5238;43.508;4.980;2023-02-01T00:52:09;9.20;91.30
10384;DHT22;5238;43.508;4.980;2023-02-01T00:54:36;9.20;91.30
10384;DHT22;5238;43.508;4.980;2023-02-01T00:57:07;9.20;91.30
10384;DHT22;5238;43.508;4.980;2023-02-01T00:59:36;9.20;91.30
10384;DHT22;5238;43.508;4.980;2023-02-01T01:02:06;9.20;91.30
10384;DHT22;5238;43.508;4.980;2023-02-01T01:04:33;9.20;91.30
10384;DHT22;5238;43.508;4.980;2023-02-01T01:07:02;9.20;91.30
10384;DHT22;5238;43.508;4.980;2023-02-01T01:09:29;9.20;91.30
10384;DHT22;5238;43.508;4.980;2023-02-01T01:12:07;9.20;91.30
10384;DHT22;5238;43.508;4.980;2023-02-01T01:14:40;9.10;91.30
10384;DHT22;5238;43.508;4.980;2023-02-01T01:17:08;9.10;91.30
10384;DHT22;5238;43.508;4.980;2023-02-01T01:19:41;9.10;91.30
10384;DHT22;5238;43.508;4.980;2023-02-01T01:22:12;9.10;91.30
10384;DHT22;5238;43.508;4.980;2023-02-01T01:24:46;9.10;91.30
10384;DHT22;5238;43.508;4.980;2023-02-01T01:27:13;9.10;91.30
10384;DHT22;5238;43.508;4.980;2023-02-01T01:29:42;9.00;91.30
10384;DHT22;5238;43.508;4.980;2023-02-01T01:32:11;9.10;91.30
10384;DHT22;5238;43.508;4.980;2023-02-01T01:34:39;9.10;91.30
10384;DHT22;5238;43.508;4.980;2023-02-01T01:37:11;9.10;91.30
10384;DHT22;5238;43.508;4.980;2023-02-01T01:39:38;9.10;91.30
10384;DHT22;5238;43.508;4.980;2023-02-01T01:42:16;9.10;91.30
10384;DHT22;5238;43.508;4.980;2023-02-01T01:45:00;9.10;91.30
10384;DHT22;5238;43.508;4.980;2023-02-01T01:47:37;9.10;91.30
10384;DHT22;5238;43.508;4.980;2023-02-01T01:50:11;9.10;91.30
10384;DHT22;5238;43.508;4.980;2023-02-01T01:52:41;9.10;91.30
10384;DHT22;5238;43.508;4.980;2023-02-01T01:55:09;9.00;91.30
10384;DHT22;5238;43.508;4.980;2023-02-01T01:57:50;9.00;91.30
10384;DHT22;5238;43.508;4.980;2023-02-01T02:00:22;9.00;91.30
10384;DHT22;5238;43.508;4.980;2023-02-01T02:02:58;9.00;91.30
10384;DHT22;5238;43.508;4.980;2023-02-01T02:05:31;9.00;91.30
10384;DHT22;5238;43.508;4.980;2023-02-01T02:08:03;9.00;91.30
10384;DHT22;5238;43.508;4.980;2023-02-01T02:10:31;9.00;91.30
10384;DHT22;5238;43.508;4.980;2023-02-01T02:13:17;9.00;91.30
10384;DHT22;5238;43.508;4.980;2023-02-01T02:16:02;9.00;91.30
10384;DHT22;5238;43.508;4.980;2023-02-01T02:18:42;9.00;91.30
10384;DHT22;5238;43.508;4.980;2023-02-01T02:21:17;9.10;91.30
10384;DHT22;5238;43.508;4.980;2023-02-01T02:24:34;9.10;91.30
10384;DHT22;5238;43.508;4.980;2023-02-01T02:27:25;9.10;91.30
10384;DHT22;5238;43.508;4.980;2023-02-01T02:30:25;9.10;91.30
10384;DHT22;5238;43.508;4.980;2023-02-01T02:33:41;9.10;91.30
10384;DHT22;5238;43.508;4.980;2023-02-01T02:36:17;9.10;91.30
10384;DHT22;5238;43.508;4.980;2023-02-01T02:38:54;9.10;91.30
10384;DHT22;5238;43.508;4.980;2023-02-01T02:41:30;9.10;91.30
10384;DHT22;5238;43.508;4.980;2023-02-01T02:44:21;9.10;91.30
10384;DHT22;5238;43.508;4.980;2023-02-01T02:47:14;9.10;91.30
10384;DHT22;5238;43.508;4.980;2023-02-01T02:50:08;9.10;91.30
10384;DHT22;5238;43.508;4.980;2023-02-01T02:53:02;9.10;91.30
10384;DHT22;5238;43.508;4.980;2023-02-01T02:55:48;9.10;91.30
10384;DHT22;5238;43.508;4.980;2023-02-01T02:58:19;9.10;91.30
10384;DHT22;5238;43.508;4.980;2023-02-01T03:01:09;9.10;91.30
10384;DHT22;5238;43.508;4.980;2023-02-01T03:03:56;9.10;91.30
10384;DHT22;5238;43.508;4.980;2023-02-01T03:06:41;9.10;91.30
10384;DHT22;5238;43.508;4.980;2023-02-01T03:09:18;9.10;91.30
10384;DHT22;5238;43.508;4.980;2023-02-01T03:11:50;9.10;91.30
10384;DHT22;5238;43.508;4.980;2023-02-01T03:14:40;9.10;91.30
10384;DHT22;5238;43.508;4.980;2023-02-01T03:17:14;9.10;91.30
10384;DHT22;5238;43.508;4.980;2023-02-01T03:19:59;9.10;91.30
10384;DHT22;5238;43.508;4.980;2023-02-01T03:22:35;9.10;91.30
10384;DHT22;5238;43.508;4.980;2023-02-01T03:25:08;9.10;91.30
10384;DHT22;5238;43.508;4.980;2023-02-01T03:27:43;9.10;91.30
10384;DHT22;5238;43.508;4.980;2023-02-01T03:30:22;9.10;91.30
10384;DHT22;5238;43.508;4.980;2023-02-01T03:32:57;9.10;91.30
10384;DHT22;5238;43.508;4.980;2023-02-01T03:35:45;9.10;91.30
10384;DHT22;5238;43.508;4.980;2023-02-01T03:38:27;9.10;91.30
10384;DHT22;5238;43.508;4.980;2023-02-01T03:41:01;9.10;91.30
10384;DHT22;5238;43.508;4.980;2023-02-01T03:43:35;9.10;91.30
10384;DHT22;5238;43.508;4.980;2023-02-01T03:46:23;9.10;91.30
10384;DHT22;5238;43.508;4.980;2023-02-01T03:48:55;9.00;91.30
10384;DHT22;5238;43.508;4.980;2023-02-01T03:51:26;9.10;91.30
10384;DHT22;5238;43.508;4.980;2023-02-01T03:53:56;9.10;91.30
10384;DHT22;5238;43.508;4.980;2023-02-01T03:56:35;9.10;91.30
10384;DHT22;5238;43.508;4.980;2023-02-01T03:59:06;9.10;91.30
10384;DHT22;5238;43.508;4.980;2023-02-01T04:01:35;9.10;91.30
10384;DHT22;5238;43.508;4.980;2023-02-01T04:04:07;9.10;91.30
10384;DHT22;5238;43.508;4.980;2023-02-01T04:06:36;9.00;91.30
10384;DHT22;5238;43.508;4.980;2023-02-01T04:09:06;9.00;91.30
10384;DHT22;5238;43.508;4.980;2023-02-01T04:11:33;9.10;91.30
10384;DHT22;5238;43.508;4.980;2023-02-01T04:14:02;9.10;91.30
10384;DHT22;5238;43.508;4.980;2023-02-01T04:16:34;9.10;91.30
10384;DHT22;5238;43.508;4.980;2023-02-01T04:19:04;9.10;91.30
10384;DHT22;5238;43.508;4.980;2023-02-01T04:21:35;9.10;91.30
10384;DHT22;5238;43.508;4.980;2023-02-01T04:24:05;9.10;91.30
10384;DHT22;5238;43.508;4.980;2023-02-01T04:26:39;9.20;91.30
10384;DHT22;5238;43.508;4.980;2023-02-01T04:29:10;9.20;91.30
10384;DHT22;5238;43.508;4.980;2023-02-01T04:31:38;9.20;91.30
10384;DHT22;5238;43.508;4.980;2023-02-01T04:34:06;9.20;91.30
10384;DHT22;5238;43.508;4.980;2023-02-01T04:36:33;9.30;91.30
10384;DHT22;5238;43.508;4.980;2023-02-01T04:39:02;9.30;91.30
10384;DHT22;5238;43.508;4.980;2023-02-01T04:41:31;9.30;91.30
10384;DHT22;5238;43.508;4.980;2023-02-01T04:44:00;9.30;91.30
10384;DHT22;5238;43.508;4.980;2023-02-01T04:46:27;9.30;91.30
10384;DHT22;5238;43.508;4.980;2023-02-01T04:48:56;9.30;91.30
10384;DHT22;5238;43.508;4.980;2023-02-01T04:51:23;9.40;91.30
10384;DHT22;5238;43.508;4.980;2023-02-01T04:53:56;9.40;91.30
10384;DHT22;5238;43.508;4.980;2023-02-01T04:56:24;9.40;91.30
10384;DHT22;5238;43.508;4.980;2023-02-01T04:59:01;9.40;91.30
10384;DHT22;5238;43.508;4.980;2023-02-01T05:01:30;9.40;91.30
10384;DHT22;5238;43.508;4.980;2023-02-01T05:03:59;9.40;91.30
10384;DHT22;5238;43.508;4.980;2023-02-01T05:06:29;9.40;91.30
10384;DHT22;5238;43.508;4.980;2023-02-01T05:09:03;9.40;91.30
10384;DHT22;5238;43.508;4.980;2023-02-01T05:11:31;9.40;91.30
10384;DHT22;5238;43.508;4.980;2023-02-01T05:14:21;9.40;91.30
10384;DHT22;5238;43.508;4.980;2023-02-01T05:16:54;9.40;91.30
10384;DHT22;5238;43.508;4.980;2023-02-01T05:19:26;9.40;91.30
10384;DHT22;5238;43.508;4.980;2023-02-01T05:21:54;9.40;91.30
10384;DHT22;5238;43.508;4.980;2023-02-01T05:24:25;9.40;91.30
10384;DHT22;5238;43.508;4.980;2023-02-01T05:26:56;9.40;91.30
10384;DHT22;5238;43.508;4.980;2023-02-01T05:29:38;9.40;91.30
10384;DHT22;5238;43.508;4.980;2023-02-01T05:32:08;9.40;91.30
10384;DHT22;5238;43.508;4.980;2023-02-01T05:34:37;9.40;91.30
10384;DHT22;5238;43.508;4.980;2023-02-01T05:37:09;9.40;91.30
10384;DHT22;5238;43.508;4.980;2023-02-01T05:39:36;9.40;91.30
10384;DHT22;5238;43.508;4.980;2023-02-01T05:42:12;9.50;91.30
10384;DHT22;5238;43.508;4.980;2023-02-01T05:44:51;9.50;91.30
10384;DHT22;5238;43.508;4.980;2023-02-01T05:47:18;9.50;91.30
10384;DHT22;5238;43.508;4.980;2023-02-01T05:49:46;9.50;91.30
10384;DHT22;5238;43.508;4.980;2023-02-01T05:52:13;9.50;91.30
10384;DHT22;5238;43.508;4.980;2023-02-01T05:54:47;9.50;91.30
10384;DHT22;5238;43.508;4.980;2023-02-01T05:57:14;9.50;91.30
10384;DHT22;5238;43.508;4.980;2023-02-01T05:59:43;9.50;91.30
10384;DHT22;5238;43.508;4.980;2023-02-01T06:02:15;9.50;91.30
10384;DHT22;5238;43.508;4.980;2023-02-01T06:04:44;9.50;91.30
10384;DHT22;5238;43.508;4.980;2023-02-01T06:07:11;9.50;91.30
10384;DHT22;5238;43.508;4.980;2023-02-01T06:09:38;9.50;91.30
10384;DHT22;5238;43.508;4.980;2023-02-01T06:12:07;9.50;91.30
10384;DHT22;5238;43.508;4.980;2023-02-01T06:14:39;9.50;91.30
10384;DHT22;5238;43.508;4.980;2023-02-01T06:17:14;9.50;91.30
10384;DHT22;5238;43.508;4.980;2023-02-01T06:19:47;9.50;91.30
10384;DHT22;5238;43.508;4.980;2023-02-01T06:22:20;9.40;91.30
10384;DHT22;5238;43.508;4.980;2023-02-01T06:24:48;9.40;91.30
10384;DHT22;5238;43.508;4.980;2023-02-01T06:27:15;9.40;91.30
10384;DHT22;5238;43.508;4.980;2023-02-01T06:29:45;9.40;91.30
10384;DHT22;5238;43.508;4.980;2023-02-01T06:32:14;9.40;91.30
10384;DHT22;5238;43.508;4.980;2023-02-01T06:34:47;9.40;91.30
10384;DHT22;5238;43.508;4.980;2023-02-01T06:37:15;9.40;91.30
10384;DHT22;5238;43.508;4.980;2023-02-01T06:39:43;9.40;91.30
10384;DHT22;5238;43.508;4.980;2023-02-01T06:42:17;9.40;91.30
10384;DHT22;5238;43.508;4.980;2023-02-01T06:44:45;9.40;91.30
10384;DHT22;5238;43.508;4.980;2023-02-01T06:47:16;9.40;91.30
10384;DHT22;5238;43.508;4.980;2023-02-01T06:49:46;9.40;91.30
10384;DHT22;5238;43.508;4.980;2023-02-01T06:52:18;9.40;91.30
10384;DHT22;5238;43.508;4.980;2023-02-01T06:54:48;9.40;91.30
10384;DHT22;5238;43.508;4.980;2023-02-01T06:57:24;9.30;91.30
10384;DHT22;5238;43.508;4.980;2023-02-01T06:59:56;9.30;91.30
10384;DHT22;5238;43.508;4.980;2023-02-01T07:02:25;9.30;91.30
10384;DHT22;5238;43.508;4.980;2023-02-01T07:04:56;9.30;91.30
10384;DHT22;5238;43.508;4.980;2023-02-01T07:07:24;9.30;91.30
10384;DHT22;5238;43.508;4.980;2023-02-01T07:09:57;9.30;91.30
10384;DHT22;5238;43.508;4.980;2023-02-01T07:12:24;9.30;91.30
10384;DHT22;5238;43.508;4.980;2023-02-01T07:14:55;9.30;91.30
10384;DHT22;5238;43.508;4.980;2023-02-01T07:17:42;9.30;91.30
10384;DHT22;5238;43.508;4.980;2023-02-01T07:20:15;9.30;91.30
10384;DHT22;5238;43.508;4.980;2023-02-01T07:22:44;9.30;91.30
10384;DHT22;5238;43.508;4.980;2023-02-01T07:25:15;9.30;91.30
10384;DHT22;5238;43.508;4.980;2023-02-01T07:27:44;9.30;91.30
10384;DHT22;5238;43.508;4.980;2023-02-01T07:30:14;9.40;91.30
10384;DHT22;5238;43.508;4.980;2023-02-01T07:32:51;9.40;91.30
10384;DHT22;5238;43.508;4.980;2023-02-01T07:35:18;9.40;91.30
10384;DHT22;5238;43.508;4.980;2023-02-01T07:37:49;9.50;91.30
10384;DHT22;5238;43.508;4.980;2023-02-01T07:40:24;9.50;91.30
10384;DHT22;5238;43.508;4.980;2023-02-01T07:43:08;9.50;91.30
10384;DHT22;5238;43.508;4.980;2023-02-01T07:45:43;9.60;91.30
10384;DHT22;5238;43.508;4.980;2023-02-01T07:48:18;9.60;91.30
10384;DHT22;5238;43.508;4.980;2023-02-01T07:50:59;9.70;91.30
10384;DHT22;5238;43.508;4.980;2023-02-01T07:53:33;9.70;91.30
10384;DHT22;5238;43.508;4.980;2023-02-01T07:56:01;9.70;91.30
10384;DHT22;5238;43.508;4.980;2023-02-01T07:58:29;9.80;91.30
10384;DHT22;5238;43.508;4.980;2023-02-01T08:00:56;9.80;91.30
10384;DHT22;5238;43.508;4.980;2023-02-01T08:04:01;9.90;91.30
10384;DHT22;5238;43.508;4.980;2023-02-01T08:06:34;10.00;91.30
10384;DHT22;5238;43.508;4.980;2023-02-01T08:09:07;10.10;91.30
10384;DHT22;5238;43.508;4.980;2023-02-01T08:11:38;10.30;91.30
10384;DHT22;5238;43.508;4.980;2023-02-01T08:14:07;10.60;91.30
10384;DHT22;5238;43.508;4.980;2023-02-01T08:16:40;10.70;91.30
10384;DHT22;5238;43.508;4.980;2023-02-01T08:19:15;10.70;91.30
10384;DHT22;5238;43.508;4.980;2023-02-01T08:21:48;10.70;91.30
10384;DHT22;5238;43.508;4.980;2023-02-01T08:24:23;10.70;91.30
10384;DHT22;5238;43.508;4.980;2023-02-01T08:26:52;10.70;91.30
10384;DHT22;5238;43.508;4.980;2023-02-01T08:29:19;10.60;91.30
10384;DHT22;5238;43.508;4.980;2023-02-01T08:31:52;10.80;91.30
10384;DHT22;5238;43.508;4.980;2023-02-01T08:34:22;10.80;91.30
10384;DHT22;5238;43.508;4.980;2023-02-01T08:36:55;10.80;91.30
10384;DHT22;5238;43.508;4.980;2023-02-01T08:39:30;10.80;91.30
10384;DHT22;5238;43.508;4.980;2023-02-01T08:41:57;10.80;91.30
10384;DHT22;5238;43.508;4.980;2023-02-01T08:44:41;10.70;91.30
10384;DHT22;5238;43.508;4.980;2023-02-01T08:47:11;10.70;91.30
10384;DHT22;5238;43.508;4.980;2023-02-01T08:49:40;10.70;91.30
10384;DHT22;5238;43.508;4.980;2023-02-01T08:52:10;10.80;91.30
10384;DHT22;5238;43.508;4.980;2023-02-01T08:54:37;11.00;91.30
10384;DHT22;5238;43.508;4.980;2023-02-01T08:57:06;11.20;91.30
10384;DHT22;5238;43.508;4.980;2023-02-01T08:59:37;11.50;91.30
10384;DHT22;5238;43.508;4.980;2023-02-01T09:02:05;11.80;91.30
10384;DHT22;5238;43.508;4.980;2023-02-01T09:04:38;12.00;91.30
10384;DHT22;5238;43.508;4.980;2023-02-01T09:07:22;12.10;91.30
10384;DHT22;5238;43.508;4.980;2023-02-01T09:09:55;12.30;91.30
10384;DHT22;5238;43.508;4.980;2023-02-01T09:12:26;12.40;91.30
10384;DHT22;5238;43.508;4.980;2023-02-01T09:14:56;12.60;91.30
10384;DHT22;5238;43.508;4.980;2023-02-01T09:17:33;12.80;91.30
10384;DHT22;5238;43.508;4.980;2023-02-01T09:20:03;13.00;91.30
10384;DHT22;5238;43.508;4.980;2023-02-01T09:22:34;13.20;91.30
10384;DHT22;5238;43.508;4.980;2023-02-01T09:25:01;13.40;91.30
10384;DHT22;5238;43.508;4.980;2023-02-01T09:27:28;13.60;91.30
10384;DHT22;5238;43.508;4.980;2023-02-01T09:30:05;13.90;91.30
10384;DHT22;5238;43.508;4.980;2023-02-01T09:32:36;14.10;91.30
10384;DHT22;5238;43.508;4.980;2023-02-01T09:35:05;14.30;91.30
10384;DHT22;5238;43.508;4.980;2023-02-01T09:37:40;14.40;91.30
10384;DHT22;5238;43.508;4.980;2023-02-01T09:40:15;14.60;91.30
10384;DHT22;5238;43.508;4.980;2023-02-01T09:43:00;14.70;91.30
10384;DHT22;5238;43.508;4.980;2023-02-01T09:45:40;14.80;91.30
10384;DHT22;5238;43.508;4.980;2023-02-01T09:48:16;14.90;91.30
10384;DHT22;5238;43.508;4.980;2023-02-01T09:50:49;15.00;91.30
10384;DHT22;5238;43.508;4.980;2023-02-01T09:53:22;15.10;91.30
10384;DHT22;5238;43.508;4.980;2023-02-01T09:56:01;15.20;91.30
10384;DHT22;5238;43.508;4.980;2023-02-01T09:58:33;15.30;91.30
10384;DHT22;5238;43.508;4.980;2023-02-01T10:01:13;15.30;91.30
10384;DHT22;5238;43.508;4.980;2023-02-01T10:03:44;15.30;91.30
10384;DHT22;5238;43.508;4.980;2023-02-01T10:06:34;15.40;91.30
10384;DHT22;5238;43.508;4.980;2023-02-01T10:09:33;15.40;91.30
10384;DHT22;5238;43.508;4.980;2023-02-01T10:12:41;15.40;91.30
10384;DHT22;5238;43.508;4.980;2023-02-01T10:15:28;15.30;91.30
10384;DHT22;5238;43.508;4.980;2023-02-01T10:21:23;15.30;91.30
10384;DHT22;5238;43.508;4.980;2023-02-01T10:24:11;15.30;91.30
10384;DHT22;5238;43.508;4.980;2023-02-01T10:26:55;15.30;91.30
10384;DHT22;5238;43.508;4.980;2023-02-01T10:29:32;15.40;91.30
10384;DHT22;5238;43.508;4.980;2023-02-01T10:32:02;15.40;91.30
10384;DHT22;5238;43.508;4.980;2023-02-01T10:34:33;15.40;91.30
10384;DHT22;5238;43.508;4.980;2023-02-01T10:40:16;15.50;91.30
10384;DHT22;5238;43.508;4.980;2023-02-01T10:42:50;15.40;91.30
10384;DHT22;5238;43.508;4.980;2023-02-01T10:45:24;15.40;91.30
10384;DHT22;5238;43.508;4.980;2023-02-01T10:47:54;15.40;91.30
10384;DHT22;5238;43.508;4.980;2023-02-01T10:50:40;15.30;91.30
10384;DHT22;5238;43.508;4.980;2023-02-01T10:53:20;15.30;91.30
10384;DHT22;5238;43.508;4.980;2023-02-01T10:55:54;15.30;91.30
10384;DHT22;5238;43.508;4.980;2023-02-01T10:58:30;15.30;91.30
10384;DHT22;5238;43.508;4.980;2023-02-01T11:01:04;15.20;91.30
10384;DHT22;5238;43.508;4.980;2023-02-01T11:03:54;15.30;91.30
10384;DHT22;5238;43.508;4.980;2023-02-01T11:06:27;15.20;91.30
10384;DHT22;5238;43.508;4.980;2023-02-01T11:08:58;15.20;91.30
10384;DHT22;5238;43.508;4.980;2023-02-01T11:11:30;15.30;91.30
10384;DHT22;5238;43.508;4.980;2023-02-01T11:14:14;15.30;91.30
10384;DHT22;5238;43.508;4.980;2023-02-01T11:16:52;15.30;91.30
10384;DHT22;5238;43.508;4.980;2023-02-01T11:19:24;15.20;91.30
10384;DHT22;5238;43.508;4.980;2023-02-01T11:21:51;15.20;91.30
10384;DHT22;5238;43.508;4.980;2023-02-01T11:24:23;15.10;91.30
10384;DHT22;5238;43.508;4.980;2023-02-01T11:26:55;15.10;91.30
10384;DHT22;5238;43.508;4.980;2023-02-01T11:29:35;15.00;91.30
10384;DHT22;5238;43.508;4.980;2023-02-01T11:32:04;14.90;91.30
10384;DHT22;5238;43.508;4.980;2023-02-01T11:34:37;14.80;91.30
10384;DHT22;5238;43.508;4.980;2023-02-01T11:37:17;14.70;91.30
10384;DHT22;5238;43.508;4.980;2023-02-01T11:39:54;14.70;91.30
10384;DHT22;5238;43.508;4.980;2023-02-01T11:42:25;14.60;91.30
10384;DHT22;5238;43.508;4.980;2023-02-01T11:45:27;14.50;91.30
10384;DHT22;5238;43.508;4.980;2023-02-01T11:48:09;14.50;91.30
10384;DHT22;5238;43.508;4.980;2023-02-01T11:50:46;14.40;91.30
10384;DHT22;5238;43.508;4.980;2023-02-01T11:53:34;14.30;91.30
10384;DHT22;5238;43.508;4.980;2023-02-01T11:56:11;14.30;91.30
10384;DHT22;5238;43.508;4.980;2023-02-01T12:02:07;14.20;91.30
10384;DHT22;5238;43.508;4.980;2023-02-01T12:08:38;14.10;91.30
10384;DHT22;5238;43.508;4.980;2023-02-01T12:11:33;14.20;91.30
10384;DHT22;5238;43.508;4.980;2023-02-01T12:14:14;14.20;91.30
10384;DHT22;5238;43.508;4.980;2023-02-01T12:17:15;14.20;91.30
10384;DHT22;5238;43.508;4.980;2023-02-01T12:20:03;14.20;91.30
10384;DHT22;5238;43.508;4.980;2023-02-01T12:22:45;14.20;91.30
10384;DHT22;5238;43.508;4.980;2023-02-01T12:25:30;14.20;91.30
10384;DHT22;5238;43.508;4.980;2023-02-01T12:28:12;14.30;91.30
10384;DHT22;5238;43.508;4.980;2023-02-01T12:31:13;14.30;91.30
10384;DHT22;5238;43.508;4.980;2023-02-01T12:34:11;14.30;91.30
10384;DHT22;5238;43.508;4.980;2023-02-01T12:36:51;14.20;91.30
10384;DHT22;5238;43.508;4.980;2023-02-01T12:39:27;14.20;91.30
10384;DHT22;5238;43.508;4.980;2023-02-01T12:42:04;14.20;91.30
10384;DHT22;5238;43.508;4.980;2023-02-01T12:44:42;14.20;91.30
10384;DHT22;5238;43.508;4.980;2023-02-01T12:47:24;14.10;91.30
10384;DHT22;5238;43.508;4.980;2023-02-01T12:50:01;14.10;91.30
10384;DHT22;5238;43.508;4.980;2023-02-01T12:52:46;14.10;91.30
10384;DHT22;5238;43.508;4.980;2023-02-01T12:55:27;14.10;91.30
10384;DHT22;5238;43.508;4.980;2023-02-01T12:58:01;14.10;91.30
10384;DHT22;5238;43.508;4.980;2023-02-01T13:00:41;14.10;91.30
10384;DHT22;5238;43.508;4.980;2023-02-01T13:03:33;14.10;91.30
10384;DHT22;5238;43.508;4.980;2023-02-01T13:06:13;14.00;91.30
10384;DHT22;5238;43.508;4.980;2023-02-01T13:08:50;14.10;91.30
10384;DHT22;5238;43.508;4.980;2023-02-01T13:11:29;14.10;91.30
10384;DHT22;5238;43.508;4.980;2023-02-01T13:14:10;14.10;91.30
10384;DHT22;5238;43.508;4.980;2023-02-01T13:19:58;14.20;91.30
10384;DHT22;5238;43.508;4.980;2023-02-01T13:22:36;14.20;91.30
10384;DHT22;5238;43.508;4.980;2023-02-01T13:25:13;14.20;91.30
10384;DHT22;5238;43.508;4.980;2023-02-01T13:27:42;14.20;91.30
10384;DHT22;5238;43.508;4.980;2023-02-01T13:30:18;14.20;91.30
10384;DHT22;5238;43.508;4.980;2023-02-01T13:33:11;14.20;91.30
10384;DHT22;5238;43.508;4.980;2023-02-01T13:35:55;14.20;91.30
10384;DHT22;5238;43.508;4.980;2023-02-01T13:42:11;14.20;91.30
10384;DHT22;5238;43.508;4.980;2023-02-01T13:44:43;14.20;91.30
10384;DHT22;5238;43.508;4.980;2023-02-01T13:47:31;14.10;91.30
10384;DHT22;5238;43.508;4.980;2023-02-01T13:50:12;14.10;91.30
10384;DHT22;5238;43.508;4.980;2023-02-01T13:52:59;14.10;91.30
10384;DHT22;5238;43.508;4.980;2023-02-01T13:55:40;14.10;91.30
10384;DHT22;5238;43.508;4.980;2023-02-01T13:58:32;14.10;91.30
10384;DHT22;5238;43.508;4.980;2023-02-01T14:01:40;14.10;91.30
10384;DHT22;5238;43.508;4.980;2023-02-01T14:04:45;14.10;91.30
10384;DHT22;5238;43.508;4.980;2023-02-01T14:07:25;14.00;91.30
10384;DHT22;5238;43.508;4.980;2023-02-01T14:09:53;14.00;91.30
10384;DHT22;5238;43.508;4.980;2023-02-01T14:12:44;14.00;91.30
10384;DHT22;5238;43.508;4.980;2023-02-01T14:15:33;14.00;91.30
10384;DHT22;5238;43.508;4.980;2023-02-01T14:21:24;13.90;91.30
10384;DHT22;5238;43.508;4.980;2023-02-01T14:24:00;13.90;91.30
10384;DHT22;5238;43.508;4.980;2023-02-01T14:26:44;13.90;91.30
10384;DHT22;5238;43.508;4.980;2023-02-01T14:29:30;13.90;91.30
10384;DHT22;5238;43.508;4.980;2023-02-01T14:32:06;13.90;91.30
10384;DHT22;5238;43.508;4.980;2023-02-01T14:34:48;13.90;91.30
10384;DHT22;5238;43.508;4.980;2023-02-01T14:37:50;13.90;91.30
10384;DHT22;5238;43.508;4.980;2023-02-01T14:40:26;13.90;91.30
10384;DHT22;5238;43.508;4.980;2023-02-01T14:43:01;13.90;91.30
10384;DHT22;5238;43.508;4.980;2023-02-01T14:45:51;13.90;91.30
10384;DHT22;5238;43.508;4.980;2023-02-01T14:48:48;13.90;91.30
10384;DHT22;5238;43.508;4.980;2023-02-01T14:51:17;13.80;91.30
10384;DHT22;5238;43.508;4.980;2023-02-01T14:53:53;13.80;91.30
10384;DHT22;5238;43.508;4.980;2023-02-01T14:56:25;13.90;91.30
10384;DHT22;5238;43.508;4.980;2023-02-01T14:59:00;13.90;91.30
10384;DHT22;5238;43.508;4.980;2023-02-01T15:01:35;13.90;91.30
10384;DHT22;5238;43.508;4.980;2023-02-01T15:04:14;13.90;91.30
10384;DHT22;5238;43.508;4.980;2023-02-01T15:06:49;13.90;91.30
10384;DHT22;5238;43.508;4.980;2023-02-01T15:09:20;13.90;91.30
10384;DHT22;5238;43.508;4.980;2023-02-01T15:12:00;13.80;91.30
10384;DHT22;5238;43.508;4.980;2023-02-01T15:14:38;13.80;91.30
10384;DHT22;5238;43.508;4.980;2023-02-01T15:17:18;13.80;91.30
10384;DHT22;5238;43.508;4.980;2023-02-01T15:19:55;13.80;91.30
10384;DHT22;5238;43.508;4.980;2023-02-01T15:22:25;13.70;91.30
10384;DHT22;5238;43.508;4.980;2023-02-01T15:25:01;13.80;91.30
10384;DHT22;5238;43.508;4.980;2023-02-01T15:27:31;13.80;91.30
10384;DHT22;5238;43.508;4.980;2023-02-01T15:30:05;13.70;91.30
10384;DHT22;5238;43.508;4.980;2023-02-01T15:32:37;13.70;91.30
10384;DHT22;5238;43.508;4.980;2023-02-01T15:35:37;13.70;91.30
10384;DHT22;5238;43.508;4.980;2023-02-01T15:38:21;13.70;91.30
10384;DHT22;5238;43.508;4.980;2023-02-01T15:40:56;13.60;91.30
10384;DHT22;5238;43.508;4.980;2023-02-01T15:43:24;13.60;91.30
10384;DHT22;5238;43.508;4.980;2023-02-01T15:45:56;13.60;91.30
10384;DHT22;5238;43.508;4.980;2023-02-01T15:48:34;13.60;91.30
10384;DHT22;5238;43.508;4.980;2023-02-01T15:51:05;13.50;91.30
10384;DHT22;5238;43.508;4.980;2023-02-01T15:53:32;13.50;91.30
10384;DHT22;5238;43.508;4.980;2023-02-01T15:56:01;13.50;91.30
10384;DHT22;5238;43.508;4.980;2023-02-01T15:58:33;13.40;91.30
10384;DHT22;5238;43.508;4.980;2023-02-01T16:01:04;13.40;91.30
10384;DHT22;5238;43.508;4.980;2023-02-01T16:03:36;13.40;91.30
10384;DHT22;5238;43.508;4.980;2023-02-01T16:06:09;13.30;91.30
10384;DHT22;5238;43.508;4.980;2023-02-01T16:08:36;13.30;91.30
10384;DHT22;5238;43.508;4.980;2023-02-01T16:11:23;13.20;91.30
10384;DHT22;5238;43.508;4.980;2023-02-01T16:13:56;13.20;91.30
10384;DHT22;5238;43.508;4.980;2023-02-01T16:16:27;13.20;91.30
10384;DHT22;5238;43.508;4.980;2023-02-01T16:18:56;13.10;91.30
10384;DHT22;5238;43.508;4.980;2023-02-01T16:21:24;13.10;91.30
10384;DHT22;5238;43.508;4.980;2023-02-01T16:23:53;13.00;91.30
10384;DHT22;5238;43.508;4.980;2023-02-01T16:26:20;13.00;91.30
10384;DHT22;5238;43.508;4.980;2023-02-01T16:28:47;12.90;91.30
10384;DHT22;5238;43.508;4.980;2023-02-01T16:31:17;12.90;91.30
10384;DHT22;5238;43.508;4.980;2023-02-01T16:33:50;12.80;91.30
10384;DHT22;5238;43.508;4.980;2023-02-01T16:36:18;12.80;91.30
10384;DHT22;5238;43.508;4.980;2023-02-01T16:38:51;12.70;91.30
10384;DHT22;5238;43.508;4.980;2023-02-01T16:41:21;12.60;91.30
10384;DHT22;5238;43.508;4.980;2023-02-01T16:43:50;12.60;91.30
10384;DHT22;5238;43.508;4.980;2023-02-01T16:46:19;12.50;91.30
10384;DHT22;5238;43.508;4.980;2023-02-01T16:48:54;12.50;91.30
10384;DHT22;5238;43.508;4.980;2023-02-01T16:51:26;12.40;91.30
10384;DHT22;5238;43.508;4.980;2023-02-01T16:53:57;12.40;91.30
10384;DHT22;5238;43.508;4.980;2023-02-01T16:56:28;12.30;91.30
10384;DHT22;5238;43.508;4.980;2023-02-01T16:58:58;12.30;91.30
10384;DHT22;5238;43.508;4.980;2023-02-01T17:01:31;12.20;91.30
10384;DHT22;5238;43.508;4.980;2023-02-01T17:04:04;12.20;91.30
10384;DHT22;5238;43.508;4.980;2023-02-01T17:06:32;12.10;91.30
10384;DHT22;5238;43.508;4.980;2023-02-01T17:09:00;12.10;91.30
10384;DHT22;5238;43.508;4.980;2023-02-01T17:11:32;12.00;91.30